Time;durP1;ratioP1;P1;durP2;ratioP2;P2;SDS_P1;SDS_P2;PMS_P1;PMS_P2;Temp;Humidity;BMP_temperature;BMP_pressure;BME280_temperature;BME280_humidity;BME280_pressure;Samples;Min_cycle;Max_cycle;Signal;HPM_P1;HPM_P2
2021/07/04 00:03:46;;;;;;;7.97;6.38;;;21.00;71.40;;;;;;10420243;28;20126;-61
2021/07/04 00:08:47;;;;;;;6.80;6.10;;;21.00;71.30;;;;;;10419813;28;20511;-61
2021/07/04 00:13:48;;;;;;;8.52;6.07;;;21.00;71.40;;;;;;10419253;28;20029;-61
2021/07/04 00:18:48;;;;;;;6.63;5.30;;;21.00;71.40;;;;;;10418059;28;20102;-60
2021/07/04 00:23:49;;;;;;;5.95;5.30;;;21.00;71.30;;;;;;10424362;28;20080;-61
2021/07/04 00:28:50;;;;;;;6.10;5.40;;;21.00;71.40;;;;;;10418999;28;20108;-61
2021/07/04 00:33:51;;;;;;;7.47;5.78;;;21.00;71.30;;;;;;10418653;28;20385;-61
2021/07/04 00:38:52;;;;;;;6.70;5.97;;;21.00;71.30;;;;;;10416615;28;20045;-61
2021/07/04 00:43:53;;;;;;;6.70;5.85;;;21.00;71.30;;;;;;10416948;28;20033;-61
2021/07/04 00:48:53;;;;;;;7.28;5.75;;;21.00;71.30;;;;;;10417839;28;20505;-61
2021/07/04 00:53:54;;;;;;;7.47;6.18;;;21.00;71.30;;;;;;10417759;28;20505;-61
2021/07/04 00:58:55;;;;;;;6.10;5.50;;;21.00;71.20;;;;;;10418112;28;20057;-61
2021/07/04 01:03:56;;;;;;;6.65;5.55;;;21.00;71.30;;;;;;10417539;28;20033;-60
2021/07/04 01:08:56;;;;;;;7.55;6.38;;;21.00;71.30;;;;;;10417240;28;20115;-61
2021/07/04 01:13:57;;;;;;;6.93;6.20;;;21.00;71.20;;;;;;10410716;28;20080;-61
2021/07/04 01:18:58;;;;;;;6.40;5.40;;;21.00;71.20;;;;;;10410223;28;20033;-60
2021/07/04 01:24:00;;;;;;;6.65;5.60;;;21.00;71.20;;;;;;10413582;28;20033;-61
2021/07/04 01:29:00;;;;;;;6.43;5.68;;;21.00;71.20;;;;;;10416617;28;20071;-61
2021/07/04 01:34:01;;;;;;;5.45;4.95;;;21.00;71.20;;;;;;10416225;28;20104;-61
2021/07/04 01:39:03;;;;;;;5.53;5.03;;;21.00;71.20;;;;;;10414191;28;20406;-60
2021/07/04 01:44:04;;;;;;;6.18;5.57;;;21.00;71.30;;;;;;10414545;28;20462;-61
2021/07/04 01:49:05;;;;;;;7.15;5.15;;;21.00;71.30;;;;;;10415860;28;20029;-61
2021/07/04 01:54:06;;;;;;;5.63;5.13;;;21.00;71.30;;;;;;10415619;28;20072;-61
2021/07/04 01:59:06;;;;;;;5.72;4.57;;;21.00;71.20;;;;;;10415500;28;20029;-61
2021/07/04 02:04:07;;;;;;;5.28;4.18;;;21.00;71.20;;;;;;10415218;28;20033;-61
2021/07/04 02:09:08;;;;;;;5.03;4.53;;;21.00;71.10;;;;;;10415076;28;20104;-61
2021/07/04 02:14:08;;;;;;;4.88;4.38;;;21.00;71.20;;;;;;10406834;28;20116;-61
2021/07/04 02:19:09;;;;;;;6.03;5.18;;;21.00;71.20;;;;;;10426426;28;20096;-61
2021/07/04 02:24:10;;;;;;;5.63;5.03;;;21.00;71.20;;;;;;10418568;28;20040;-61
2021/07/04 02:29:10;;;;;;;5.75;5.15;;;21.00;71.30;;;;;;10414555;28;20037;-61
2021/07/04 02:34:12;;;;;;;5.30;4.80;;;21.00;71.30;;;;;;10414144;28;20033;-61
2021/07/04 02:39:14;;;;;;;6.13;4.90;;;21.00;71.80;;;;;;10414086;28;20054;-61
2021/07/04 02:44:15;;;;;;;5.40;4.88;;;21.00;71.20;;;;;;10414030;28;20478;-61
2021/07/04 02:49:15;;;;;;;5.00;4.50;;;21.00;71.10;;;;;;10416908;28;20040;-61
2021/07/04 02:54:16;;;;;;;5.40;4.88;;;20.90;71.00;;;;;;10422645;28;20057;-61
2021/07/04 02:59:17;;;;;;;5.28;4.47;;;20.90;71.10;;;;;;10422331;28;20115;-61
2021/07/04 03:04:17;;;;;;;6.18;5.07;;;20.90;71.10;;;;;;10422069;28;20108;-61
2021/07/04 03:09:18;;;;;;;5.05;4.55;;;21.00;71.20;;;;;;10422111;28;20022;-61
2021/07/04 03:14:19;;;;;;;5.43;4.93;;;20.90;71.20;;;;;;10412570;28;20060;-61
2021/07/04 03:19:19;;;;;;;5.72;4.63;;;20.90;71.30;;;;;;10420430;28;20504;-61
2021/07/04 03:24:20;;;;;;;5.38;4.18;;;20.90;71.20;;;;;;10423402;28;20033;-61
2021/07/04 03:29:21;;;;;;;5.43;4.07;;;20.90;71.20;;;;;;10420777;28;20040;-61
2021/07/04 03:34:22;;;;;;;5.20;4.55;;;20.90;71.10;;;;;;10420679;28;20029;-61
2021/07/04 03:39:22;;;;;;;4.47;3.95;;;20.90;71.10;;;;;;10408161;28;20053;-61
2021/07/04 03:44:23;;;;;;;5.35;4.40;;;20.90;71.00;;;;;;10416306;28;20438;-61
2021/07/04 03:49:24;;;;;;;4.63;4.15;;;20.90;71.10;;;;;;10417884;28;20065;-61
2021/07/04 03:54:24;;;;;;;5.57;4.70;;;20.90;71.10;;;;;;10418255;28;20121;-61
2021/07/04 03:59:25;;;;;;;5.28;4.15;;;20.90;71.20;;;;;;10417614;28;20041;-61
2021/07/04 04:04:26;;;;;;;4.75;4.35;;;20.90;71.20;;;;;;10419969;28;20434;-60
2021/07/04 04:09:26;;;;;;;5.30;4.80;;;20.90;71.10;;;;;;10419359;28;20045;-61
2021/07/04 04:14:27;;;;;;;4.90;4.40;;;20.90;71.20;;;;;;10408890;28;20058;-61
2021/07/04 04:19:28;;;;;;;5.00;4.10;;;20.90;71.20;;;;;;10420581;28;20099;-60
2021/07/04 04:24:28;;;;;;;5.93;4.30;;;20.90;71.10;;;;;;10420163;28;20465;-60
2021/07/04 04:29:29;;;;;;;4.68;4.20;;;20.90;71.00;;;;;;10418809;28;20029;-60
2021/07/04 04:34:30;;;;;;;7.50;4.70;;;20.90;71.10;;;;;;10417908;28;20052;-60
2021/07/04 04:39:31;;;;;;;4.88;4.05;;;20.90;71.10;;;;;;10416949;28;20107;-60
2021/07/04 04:44:33;;;;;;;4.78;4.18;;;20.90;71.60;;;;;;10416951;28;20018;-60
2021/07/04 04:49:35;;;;;;;5.63;4.30;;;20.90;71.10;;;;;;10417056;28;20389;-60
2021/07/04 04:54:36;;;;;;;5.22;4.72;;;20.90;71.10;;;;;;10416583;28;20041;-60
2021/07/04 04:59:38;;;;;;;4.90;4.43;;;20.90;71.00;;;;;;10416658;28;20025;-60
2021/07/04 05:04:39;;;;;;;4.43;3.90;;;20.90;71.00;;;;;;10417328;28;20061;-61
2021/07/04 05:09:39;;;;;;;5.75;5.18;;;20.90;71.20;;;;;;10417043;28;20076;-62
2021/07/04 05:14:40;;;;;;;6.07;5.47;;;20.90;72.40;;;;;;10415927;28;20056;-61
2021/07/04 05:19:41;;;;;;;6.82;5.60;;;20.90;72.00;;;;;;10421160;28;20057;-60
2021/07/04 05:24:41;;;;;;;7.70;5.80;;;21.00;72.50;;;;;;10416408;28;20033;-60
2021/07/04 05:29:42;;;;;;;7.95;5.05;;;21.00;73.00;;;;;;10416528;28;20497;-58
2021/07/04 05:34:43;;;;;;;7.80;5.68;;;21.00;73.20;;;;;;10415883;28;20033;-58
2021/07/04 05:39:44;;;;;;;8.10;5.63;;;21.00;73.30;;;;;;10415971;28;20460;-57
2021/07/04 05:44:45;;;;;;;13.98;5.40;;;21.00;73.30;;;;;;10415604;28;20187;-57
2021/07/04 05:49:46;;;;;;;11.68;6.38;;;21.00;73.60;;;;;;10415614;28;20087;-58
2021/07/04 05:54:46;;;;;;;13.05;5.40;;;21.00;73.80;;;;;;10415359;28;20025;-59
2021/07/04 05:59:47;;;;;;;15.05;6.63;;;21.10;73.20;;;;;;10415189;28;20122;-58
2021/07/04 06:04:47;;;;;;;18.75;7.93;;;21.10;73.20;;;;;;10414592;28;20121;-59
2021/07/04 06:09:48;;;;;;;18.40;6.70;;;21.10;73.50;;;;;;10414168;28;20032;-57
2021/07/04 06:14:49;;;;;;;16.25;6.80;;;21.10;73.60;;;;;;10414561;28;20094;-59
2021/07/04 06:19:49;;;;;;;23.30;8.30;;;21.10;73.70;;;;;;10411622;28;20125;-56
2021/07/04 06:24:50;;;;;;;19.67;7.80;;;21.10;74.10;;;;;;10404148;28;20022;-59
2021/07/04 06:29:51;;;;;;;16.35;6.95;;;21.10;73.80;;;;;;10413480;28;20443;-59
2021/07/04 06:34:52;;;;;;;16.92;8.57;;;21.10;73.70;;;;;;10413308;28;20041;-59
2021/07/04 06:39:52;;;;;;;16.67;7.35;;;21.10;74.10;;;;;;10413831;28;20500;-59
2021/07/04 06:44:53;;;;;;;14.57;8.68;;;21.10;74.10;;;;;;10413964;28;20464;-56
2021/07/04 06:49:54;;;;;;;22.58;8.57;;;21.10;74.00;;;;;;10413852;28;20025;-60
2021/07/04 06:54:54;;;;;;;22.65;8.13;;;21.10;73.90;;;;;;10410638;28;20037;-59
2021/07/04 07:00:07;;;;;;;26.63;9.27;;;21.10;74.00;;;;;;10411894;28;20068;-59
2021/07/04 07:05:10;;;;;;;25.63;9.30;;;21.10;74.20;;;;;;10410797;28;20057;-59
2021/07/04 07:10:13;;;;;;;14.35;8.52;;;21.10;74.20;;;;;;10412402;28;20038;-59
2021/07/04 07:15:14;;;;;;;25.67;8.48;;;21.10;74.30;;;;;;10400167;28;20037;-59
2021/07/04 07:20:17;;;;;;;20.30;8.73;;;21.10;74.30;;;;;;10419260;28;20385;-58
2021/07/04 07:25:18;;;;;;;19.27;9.68;;;21.10;74.10;;;;;;10413397;28;20030;-58
2021/07/04 07:30:20;;;;;;;23.05;9.40;;;21.10;74.40;;;;;;10413406;28;20045;-59
2021/07/04 07:35:21;;;;;;;19.33;9.70;;;21.10;74.10;;;;;;10412432;28;20124;-59
2021/07/04 07:40:21;;;;;;;16.35;10.32;;;21.10;73.90;;;;;;10419946;28;20049;-58
2021/07/04 07:45:22;;;;;;;21.33;9.65;;;21.10;73.80;;;;;;10420444;28;20033;-59
2021/07/04 07:50:23;;;;;;;24.40;12.13;;;21.20;74.20;;;;;;10406740;28;20080;-59
2021/07/04 07:55:23;;;;;;;22.10;11.20;;;21.20;74.50;;;;;;10420025;28;20083;-59
2021/07/04 08:00:24;;;;;;;22.60;11.60;;;21.20;74.50;;;;;;10419524;28;20116;-59
2021/07/04 08:05:25;;;;;;;24.33;10.80;;;21.20;74.50;;;;;;10418888;28;20437;-63
2021/07/04 08:10:26;;;;;;;22.08;12.35;;;21.20;74.60;;;;;;10409520;28;20033;-57
2021/07/04 08:15:27;;;;;;;26.55;11.98;;;21.30;74.90;;;;;;10415275;28;20083;-64
2021/07/04 08:20:31;;;;;;;24.73;13.05;;;21.30;75.20;;;;;;10419036;28;20026;-61
2021/07/04 08:25:31;;;;;;;22.52;11.15;;;21.30;75.10;;;;;;10418872;28;20022;-60
2021/07/04 08:30:32;;;;;;;24.25;12.88;;;21.30;74.40;;;;;;10418611;28;20509;-59
2021/07/04 08:35:35;;;;;;;18.15;11.15;;;21.40;75.40;;;;;;10417597;28;20110;-59
2021/07/04 08:40:36;;;;;;;24.85;11.80;;;21.40;75.40;;;;;;10416994;28;20045;-58
2021/07/04 08:45:39;;;;;;;24.83;11.85;;;21.40;74.70;;;;;;10416770;28;20480;-58
2021/07/04 08:50:39;;;;;;;27.13;11.45;;;21.40;74.80;;;;;;10416262;28;20477;-57
2021/07/04 08:55:43;;;;;;;27.23;13.20;;;21.40;74.80;;;;;;10416978;28;20152;-58
2021/07/04 09:00:43;;;;;;;22.35;11.27;;;21.40;75.00;;;;;;10417499;28;20104;-58
2021/07/04 09:05:44;;;;;;;29.85;13.32;;;21.40;74.80;;;;;;10410479;28;20033;-57
2021/07/04 09:10:45;;;;;;;20.40;11.50;;;21.50;74.70;;;;;;10417196;28;20104;-58
2021/07/04 09:16:09;;;;;;;20.80;12.70;;;21.40;74.40;;;;;;10403662;28;20124;-59
2021/07/04 09:21:23;;;;;;;24.05;12.38;;;21.40;74.30;;;;;;10421920;28;20026;-58
2021/07/04 09:26:43;;;;;;;14.93;11.13;;;21.40;74.20;;;;;;10416399;28;20017;-58
2021/07/04 09:31:44;;;;;;;14.40;10.80;;;21.40;74.20;;;;;;10416371;28;20033;-58
2021/07/04 09:36:44;;;;;;;16.42;12.75;;;21.40;74.10;;;;;;10415761;28;20033;-60
2021/07/04 09:42:11;;;;;;;20.40;12.25;;;21.40;74.00;;;;;;10415959;28;20049;-59
2021/07/04 09:47:18;;;;;;;20.80;13.27;;;21.50;75.00;;;;;;10403547;28;20022;-58
2021/07/04 09:52:22;;;;;;;19.40;11.90;;;21.50;75.20;;;;;;10415612;28;20112;-57
2021/07/04 09:57:25;;;;;;;22.52;13.52;;;21.60;75.40;;;;;;10414942;28;20429;-59
2021/07/04 10:02:26;;;;;;;19.58;12.00;;;21.60;75.70;;;;;;10415118;28;20043;-60
2021/07/04 10:07:32;;;;;;;32.45;12.55;;;21.60;74.70;;;;;;10414226;28;20036;-60
2021/07/04 10:12:33;;;;;;;27.13;11.68;;;21.50;74.40;;;;;;10414262;28;20030;-60
2021/07/04 10:17:35;;;;;;;20.60;11.40;;;21.60;74.30;;;;;;10396929;28;20036;-59
2021/07/04 10:22:37;;;;;;;23.17;12.68;;;21.50;74.10;;;;;;10419823;28;20030;-59
2021/07/04 10:27:39;;;;;;;20.20;11.63;;;21.50;74.10;;;;;;10401129;28;20473;-59
2021/07/04 10:33:05;;;;;;;17.73;13.02;;;21.50;74.10;;;;;;10402399;28;20473;-59
2021/07/04 10:38:15;;;;;;;15.77;11.05;;;21.50;74.00;;;;;;10414327;28;20080;-59
2021/07/04 10:43:51;;;;;;;17.38;11.18;;;21.50;74.00;;;;;;10413947;28;20034;-59
2021/07/04 10:48:55;;;;;;;15.45;10.95;;;21.60;74.00;;;;;;10413953;28;20057;-59
2021/07/04 10:53:58;;;;;;;33.78;12.55;;;21.60;73.70;;;;;;10413895;28;20025;-59
2021/07/04 10:59:08;;;;;;;16.15;10.55;;;21.60;73.80;;;;;;10413938;28;20037;-59
2021/07/04 11:04:27;;;;;;;14.50;10.48;;;21.60;73.60;;;;;;10413492;28;20036;-60
2021/07/04 11:09:55;;;;;;;12.80;10.95;;;21.60;73.50;;;;;;10415356;28;20033;-59
2021/07/04 11:15:11;;;;;;;13.27;10.20;;;21.70;73.50;;;;;;10421490;28;20044;-59
2021/07/04 11:20:15;;;;;;;12.60;9.77;;;21.70;73.40;;;;;;10442395;28;20120;-59
2021/07/04 11:25:17;;;;;;;12.48;10.13;;;21.60;73.20;;;;;;10421308;28;20088;-60
2021/07/04 11:30:17;;;;;;;13.20;10.30;;;21.70;73.30;;;;;;10421355;28;20071;-60
2021/07/04 11:35:18;;;;;;;13.52;10.60;;;21.70;73.30;;;;;;10420972;28;20041;-59
2021/07/04 11:40:18;;;;;;;13.23;9.85;;;21.70;73.20;;;;;;10420354;28;20105;-60
2021/07/04 11:45:19;;;;;;;12.07;9.77;;;21.60;73.10;;;;;;10420709;28;20104;-59
2021/07/04 11:50:20;;;;;;;13.18;10.23;;;21.70;73.10;;;;;;10420397;28;20045;-59
2021/07/04 11:55:21;;;;;;;11.20;9.43;;;21.70;73.00;;;;;;10420228;28;20068;-60
2021/07/04 12:00:29;;;;;;;18.13;10.40;;;21.70;73.00;;;;;;10407952;28;20044;-59
2021/07/04 12:05:32;;;;;;;11.10;9.63;;;21.70;72.90;;;;;;10418918;28;20118;-58
2021/07/04 12:10:33;;;;;;;13.27;9.73;;;21.70;72.90;;;;;;10419511;28;20492;-60
2021/07/04 12:15:34;;;;;;;11.18;9.48;;;21.70;72.80;;;;;;10404734;28;20030;-59
2021/07/04 12:20:35;;;;;;;12.40;9.85;;;21.70;72.80;;;;;;10424264;28;20045;-58
2021/07/04 12:25:41;;;;;;;10.60;9.30;;;21.70;72.80;;;;;;10418913;28;20034;-60
2021/07/04 12:30:49;;;;;;;11.57;10.35;;;21.70;72.80;;;;;;10418457;28;20022;-60
2021/07/04 12:35:56;;;;;;;12.40;9.77;;;21.70;72.70;;;;;;10413513;28;20036;-60
2021/07/04 12:41:11;;;;;;;13.60;9.95;;;21.70;72.80;;;;;;10408707;28;20088;-57
2021/07/04 12:46:26;;;;;;;13.40;9.32;;;21.70;73.10;;;;;;10400271;28;20568;-57
2021/07/04 12:51:39;;;;;;;10.15;9.00;;;21.80;73.40;;;;;;10408774;28;20048;-62
2021/07/04 12:56:49;;;;;;;18.65;10.18;;;21.80;73.50;;;;;;10379954;28;20479;-61
2021/07/04 13:01:59;;;;;;;14.30;8.77;;;21.80;73.70;;;;;;10383119;28;20037;-60
2021/07/04 13:07:04;;;;;;;12.23;8.85;;;21.80;74.00;;;;;;10381492;28;20053;-60
2021/07/04 13:12:25;;;;;;;12.40;9.35;;;21.80;74.10;;;;;;10398668;28;20635;-61
2021/07/04 13:17:28;;;;;;;12.50;8.70;;;21.90;74.20;;;;;;10379804;28;20410;-61
2021/07/04 13:22:37;;;;;;;10.13;8.43;;;21.90;74.80;;;;;;10380906;28;20417;-61
2021/07/04 13:27:38;;;;;;;9.55;8.52;;;21.90;74.20;;;;;;10376333;28;20041;-61
2021/07/04 13:33:03;;;;;;;10.65;8.70;;;21.90;74.30;;;;;;10381098;28;20399;-58
2021/07/04 13:38:13;;;;;;;10.10;8.10;;;21.90;74.30;;;;;;10381795;28;20041;-60
2021/07/04 13:43:15;;;;;;;12.43;9.40;;;21.90;74.30;;;;;;10380001;28;20124;-61
2021/07/04 13:48:22;;;;;;;11.15;9.00;;;22.00;74.40;;;;;;10378596;28;20030;-60
2021/07/04 13:53:25;;;;;;;8.98;8.07;;;22.00;74.40;;;;;;10379871;28;20030;-61
2021/07/04 13:58:27;;;;;;;10.23;9.07;;;21.90;74.40;;;;;;10391681;28;20144;-60
2021/07/04 14:03:28;;;;;;;11.57;7.60;;;22.00;74.50;;;;;;10380465;28;20478;-56
2021/07/04 14:08:28;;;;;;;9.75;8.43;;;22.00;74.50;;;;;;10376528;28;20021;-61
2021/07/04 14:13:29;;;;;;;11.93;8.82;;;22.00;74.60;;;;;;10386923;28;20041;-60
2021/07/04 14:18:29;;;;;;;12.13;8.82;;;22.00;74.70;;;;;;10401197;28;20053;-60
2021/07/04 14:23:30;;;;;;;14.23;7.85;;;22.00;74.40;;;;;;10408408;28;20120;-62
2021/07/04 14:28:31;;;;;;;11.20;8.02;;;22.00;74.20;;;;;;10388131;28;20121;-61
2021/07/04 14:33:32;;;;;;;10.23;7.50;;;22.00;74.10;;;;;;10409342;28;20065;-62
2021/07/04 14:38:32;;;;;;;12.73;7.70;;;22.00;74.10;;;;;;10411748;28;20061;-62
2021/07/04 14:43:34;;;;;;;15.88;7.35;;;22.00;74.00;;;;;;10403810;28;20117;-62
2021/07/04 14:48:35;;;;;;;11.18;7.63;;;22.00;74.10;;;;;;10421279;28;20411;-60
2021/07/04 14:53:40;;;;;;;17.15;7.45;;;21.90;74.10;;;;;;10427257;28;20030;-61
2021/07/04 14:58:41;;;;;;;19.35;7.07;;;21.90;73.90;;;;;;10420408;28;20041;-61
2021/07/04 15:03:42;;;;;;;17.75;7.30;;;22.00;74.00;;;;;;10426745;28;20108;-60
2021/07/04 15:08:43;;;;;;;20.52;7.72;;;21.90;74.10;;;;;;10426848;28;20101;-61
2021/07/04 15:13:45;;;;;;;25.90;7.72;;;22.00;74.30;;;;;;10426810;28;20029;-62
2021/07/04 15:18:45;;;;;;;16.15;7.43;;;22.00;74.20;;;;;;10410462;28;20049;-58
2021/07/04 15:23:46;;;;;;;15.30;6.90;;;22.00;74.20;;;;;;10424571;28;20541;-61
2021/07/04 15:28:47;;;;;;;14.45;7.20;;;22.00;74.50;;;;;;10411949;28;20033;-64
2021/07/04 15:33:48;;;;;;;14.00;6.28;;;22.00;74.40;;;;;;10419642;28;20482;-60
2021/07/04 15:38:49;;;;;;;18.30;10.73;;;22.00;74.00;;;;;;10424026;28;20440;-63
2021/07/04 15:43:49;;;;;;;14.85;8.00;;;22.00;76.50;;;;;;10417464;28;20025;-62
2021/07/04 15:48:50;;;;;;;14.73;6.50;;;22.00;74.80;;;;;;10426269;28;20393;-59
2021/07/04 15:53:51;;;;;;;15.85;5.95;;;22.00;73.50;;;;;;10424437;28;20108;-64
2021/07/04 15:58:52;;;;;;;19.65;6.88;;;22.00;73.30;;;;;;10409651;28;20366;-62
2021/07/04 16:03:54;;;;;;;15.20;7.20;;;22.00;75.30;;;;;;10420210;28;20091;-60
2021/07/04 16:08:56;;;;;;;14.18;6.93;;;22.10;75.60;;;;;;10419606;28;20025;-62
2021/07/04 16:13:58;;;;;;;15.57;6.95;;;22.10;75.90;;;;;;10413410;28;20062;-60
2021/07/04 16:18:58;;;;;;;18.02;6.82;;;22.10;75.70;;;;;;10412280;28;20040;-60
2021/07/04 16:23:59;;;;;;;10.73;5.40;;;22.10;75.30;;;;;;10403697;28;20108;-59
2021/07/04 16:29:00;;;;;;;12.13;5.65;;;22.00;74.10;;;;;;10418682;28;20076;-59
2021/07/04 16:34:01;;;;;;;9.85;4.85;;;22.00;74.60;;;;;;10416610;28;20587;-59
2021/07/04 16:39:05;;;;;;;9.55;5.40;;;22.00;74.60;;;;;;10416539;28;20128;-59
2021/07/04 16:44:06;;;;;;;10.80;5.50;;;22.00;74.40;;;;;;10418245;28;20137;-59
2021/07/04 16:49:07;;;;;;;7.15;5.10;;;22.00;73.90;;;;;;10418322;28;20137;-59
2021/07/04 16:54:08;;;;;;;8.23;4.57;;;22.00;73.90;;;;;;10418194;28;20101;-59
2021/07/04 16:59:09;;;;;;;7.82;4.60;;;22.00;73.80;;;;;;10417871;28;20037;-59
2021/07/04 17:04:10;;;;;;;8.15;4.63;;;21.90;73.70;;;;;;10417545;28;20030;-59
2021/07/04 17:09:11;;;;;;;6.88;4.22;;;21.90;73.70;;;;;;10414511;28;20343;-59
2021/07/04 17:14:11;;;;;;;7.45;4.35;;;22.00;73.70;;;;;;10417155;28;20063;-60
2021/07/04 17:19:13;;;;;;;6.28;3.90;;;21.90;73.70;;;;;;10418846;28;20079;-59
2021/07/04 17:24:15;;;;;;;6.68;4.38;;;21.90;73.60;;;;;;10418381;28;20086;-60
2021/07/04 17:29:16;;;;;;;9.48;5.03;;;21.90;74.00;;;;;;10413131;28;20159;-60
2021/07/04 17:34:17;;;;;;;8.15;4.35;;;22.00;74.40;;;;;;10416236;28;20017;-60
2021/07/04 17:39:17;;;;;;;7.80;4.20;;;22.00;74.50;;;;;;10397483;28;20045;-59
2021/07/04 17:44:18;;;;;;;6.80;4.50;;;22.00;74.60;;;;;;10415052;28;20083;-59
2021/07/04 17:49:19;;;;;;;7.72;4.63;;;22.00;74.70;;;;;;10414061;28;20028;-60
2021/07/04 17:54:19;;;;;;;6.03;4.00;;;22.00;74.60;;;;;;10413703;28;20112;-60
2021/07/04 17:59:20;;;;;;;9.52;4.95;;;22.00;74.80;;;;;;10414327;28;20040;-59
2021/07/04 18:04:21;;;;;;;9.32;4.80;;;22.00;74.60;;;;;;10416036;28;20049;-58
2021/07/04 18:09:23;;;;;;;7.55;3.67;;;22.00;74.60;;;;;;10405119;28;20014;-58
2021/07/04 18:14:24;;;;;;;7.43;4.22;;;22.00;74.00;;;;;;10412779;28;20030;-58
2021/07/04 18:19:25;;;;;;;8.48;3.63;;;21.90;74.10;;;;;;10408005;28;20045;-58
2021/07/04 18:24:25;;;;;;;8.32;4.57;;;22.10;74.10;;;;;;10412182;28;20068;-57
2021/07/04 18:29:26;;;;;;;8.10;3.38;;;22.10;74.20;;;;;;10414365;28;20378;-61
2021/07/04 18:34:27;;;;;;;8.65;3.58;;;22.10;74.30;;;;;;10414030;28;20026;-60
2021/07/04 18:39:27;;;;;;;4.72;3.45;;;22.10;74.60;;;;;;10407062;28;20129;-58
2021/07/04 18:44:28;;;;;;;6.00;3.78;;;22.00;73.90;;;;;;10389963;28;20164;-59
2021/07/04 18:49:29;;;;;;;6.57;3.47;;;22.00;74.20;;;;;;10406815;28;20100;-60
2021/07/04 18:54:30;;;;;;;5.63;3.20;;;22.00;74.60;;;;;;10401858;28;20058;-59
2021/07/04 18:59:31;;;;;;;6.93;3.58;;;22.00;74.60;;;;;;10410850;28;20029;-59
2021/07/04 19:04:31;;;;;;;4.72;3.80;;;22.00;74.70;;;;;;10403618;28;20113;-60
2021/07/04 19:09:32;;;;;;;6.65;3.13;;;22.00;76.00;;;;;;10383823;28;20529;-61
2021/07/04 19:14:34;;;;;;;6.03;3.78;;;22.00;74.80;;;;;;10389882;28;20375;-59
2021/07/04 19:19:34;;;;;;;7.82;3.78;;;22.00;74.80;;;;;;10415113;28;20064;-60
2021/07/04 19:24:38;;;;;;;5.35;2.90;;;22.00;74.90;;;;;;10397833;28;20030;-59
2021/07/04 19:29:39;;;;;;;5.85;3.20;;;22.00;75.00;;;;;;10402520;28;20379;-56
2021/07/04 19:34:39;;;;;;;6.40;3.70;;;22.00;75.00;;;;;;10419930;28;20125;-57
2021/07/04 19:39:40;;;;;;;4.38;3.08;;;22.00;74.80;;;;;;10419253;28;20041;-59
2021/07/04 19:44:42;;;;;;;5.70;3.20;;;22.00;74.60;;;;;;10419029;28;20036;-59
2021/07/04 19:49:43;;;;;;;7.72;3.17;;;21.90;74.40;;;;;;10418851;28;20029;-58
2021/07/04 19:54:44;;;;;;;4.95;2.75;;;21.90;74.30;;;;;;10418277;28;20112;-59
2021/07/04 19:59:44;;;;;;;6.20;2.83;;;22.00;74.30;;;;;;10418276;28;20072;-57
2021/07/04 20:04:45;;;;;;;5.03;3.33;;;21.90;74.20;;;;;;10417004;28;20072;-59
2021/07/04 20:09:47;;;;;;;3.63;2.58;;;21.90;74.10;;;;;;10414158;28;20057;-59
2021/07/04 20:14:48;;;;;;;4.57;2.88;;;21.90;74.00;;;;;;10408011;28;20034;-60
2021/07/04 20:19:49;;;;;;;4.13;2.38;;;21.90;73.90;;;;;;10423596;28;20024;-60
2021/07/04 20:24:50;;;;;;;3.30;2.20;;;21.90;73.80;;;;;;10416936;28;20029;-59
2021/07/04 20:29:51;;;;;;;3.20;2.25;;;21.90;73.80;;;;;;10415569;28;20032;-59
2021/07/04 20:34:51;;;;;;;4.80;2.80;;;21.90;73.70;;;;;;10417010;28;20057;-60
2021/07/04 20:39:52;;;;;;;5.03;3.42;;;21.90;73.50;;;;;;10416987;28;20053;-59
2021/07/04 20:44:53;;;;;;;3.28;2.50;;;21.90;73.50;;;;;;10417806;28;20121;-59
2021/07/04 20:49:53;;;;;;;4.30;2.45;;;21.90;73.60;;;;;;10417396;28;20029;-59
2021/07/04 20:54:54;;;;;;;4.50;2.63;;;21.80;73.60;;;;;;10416768;28;20057;-59
2021/07/04 20:59:56;;;;;;;3.90;2.72;;;21.80;73.50;;;;;;10417669;28;20470;-60
2021/07/04 21:04:57;;;;;;;4.78;2.85;;;21.80;73.60;;;;;;10417428;28;20144;-59
2021/07/04 21:09:58;;;;;;;4.20;3.10;;;21.80;73.50;;;;;;10417002;28;20112;-60
2021/07/04 21:14:59;;;;;;;4.30;2.92;;;21.80;73.40;;;;;;10414065;28;20041;-59
2021/07/04 21:20:00;;;;;;;5.60;3.30;;;21.80;73.40;;;;;;10422475;28;20047;-60
2021/07/04 21:25:02;;;;;;;3.80;2.47;;;21.80;73.40;;;;;;10406912;28;20366;-60
2021/07/04 21:30:05;;;;;;;3.72;2.58;;;21.80;73.40;;;;;;10416565;28;20037;-59
2021/07/04 21:35:07;;;;;;;4.45;3.10;;;21.80;73.40;;;;;;10416270;28;20095;-60
2021/07/04 21:40:12;;;;;;;3.90;2.92;;;21.80;73.40;;;;;;10416110;28;20493;-59
2021/07/04 21:45:13;;;;;;;4.05;2.50;;;21.80;73.30;;;;;;10414633;28;20087;-59
2021/07/04 21:50:18;;;;;;;3.45;2.53;;;21.70;73.20;;;;;;10415573;28;20022;-60
2021/07/04 21:55:21;;;;;;;4.32;2.63;;;21.70;73.10;;;;;;10414933;28;20037;-60
2021/07/04 22:00:35;;;;;;;5.50;2.92;;;21.70;73.10;;;;;;10415707;28;20034;-59
2021/07/04 22:05:37;;;;;;;5.63;2.40;;;21.70;73.00;;;;;;10415297;28;20037;-60
2021/07/04 22:10:38;;;;;;;3.00;2.15;;;21.70;72.90;;;;;;10414880;28;20105;-60
2021/07/04 22:15:40;;;;;;;4.18;3.50;;;21.70;72.90;;;;;;10415238;28;20116;-60
2021/07/04 22:20:41;;;;;;;5.38;2.70;;;21.70;72.80;;;;;;10415492;28;20025;-60
2021/07/04 22:25:42;;;;;;;3.70;2.85;;;21.70;72.70;;;;;;10415079;28;20041;-60
2021/07/04 22:30:43;;;;;;;3.40;2.95;;;21.70;72.70;;;;;;10412734;28;20024;-60
2021/07/04 22:35:44;;;;;;;4.28;2.70;;;21.70;72.70;;;;;;10414479;28;20079;-59
2021/07/04 22:40:44;;;;;;;5.05;3.10;;;21.60;72.60;;;;;;10414096;28;20073;-58
2021/07/04 22:45:45;;;;;;;3.70;2.33;;;21.70;72.60;;;;;;10413852;28;20033;-59
2021/07/04 22:50:49;;;;;;;2.90;2.60;;;21.60;72.50;;;;;;10413809;28;20087;-60
2021/07/04 22:55:53;;;;;;;4.40;2.47;;;21.60;72.50;;;;;;10412783;28;20037;-59
2021/07/04 23:01:03;;;;;;;4.80;2.20;;;21.70;72.50;;;;;;10413972;28;20112;-60
2021/07/04 23:06:04;;;;;;;2.83;2.25;;;21.60;72.40;;;;;;10412897;28;20038;-60
2021/07/04 23:11:05;;;;;;;3.97;2.60;;;21.60;72.40;;;;;;10421978;28;20038;-60
2021/07/04 23:16:08;;;;;;;3.20;2.45;;;21.60;72.40;;;;;;10421916;28;20143;-58
2021/07/04 23:21:09;;;;;;;3.97;2.40;;;21.60;72.40;;;;;;10426935;28;20040;-60
2021/07/04 23:26:10;;;;;;;3.10;2.55;;;21.60;72.30;;;;;;10411557;28;20087;-59
2021/07/04 23:31:11;;;;;;;3.40;2.60;;;21.60;72.30;;;;;;10421058;28;20488;-60
2021/07/04 23:36:11;;;;;;;3.67;2.95;;;21.60;72.30;;;;;;10419721;28;20041;-60
2021/07/04 23:41:12;;;;;;;2.90;2.00;;;21.60;72.30;;;;;;10420532;28;20057;-59
2021/07/04 23:46:13;;;;;;;2.85;2.30;;;21.60;72.30;;;;;;10419356;28;20061;-57
2021/07/04 23:51:14;;;;;;;2.60;1.88;;;21.60;72.20;;;;;;10419988;28;20111;-59
2021/07/04 23:56:15;;;;;;;3.55;2.92;;;21.60;72.20;;;;;;10420454;28;20465;-60
